sensor_id;sensor_type;location;lat;lon;timestamp;temperature;humidity
22956;DHT22;40888;48.148;11.526;2024-03-23T00:53:19;12.90;85.80
22956;DHT22;40888;48.148;11.526;2024-03-23T00:55:45;12.90;85.90
22956;DHT22;40888;48.148;11.526;2024-03-23T00:58:10;12.90;85.50
22956;DHT22;40888;48.148;11.526;2024-03-23T01:00:36;13.00;84.50
22956;DHT22;40888;48.148;11.526;2024-03-23T01:03:02;13.00;83.60
22956;DHT22;40888;48.148;11.526;2024-03-23T01:05:28;13.00;83.80
22956;DHT22;40888;48.148;11.526;2024-03-23T01:07:53;13.00;83.40
22956;DHT22;40888;48.148;11.526;2024-03-23T01:10:19;12.90;84.30
22956;DHT22;40888;48.148;11.526;2024-03-23T01:12:45;12.90;84.00
22956;DHT22;40888;48.148;11.526;2024-03-23T01:15:11;12.90;84.20
22956;DHT22;40888;48.148;11.526;2024-03-23T01:17:37;12.90;84.00
22956;DHT22;40888;48.148;11.526;2024-03-23T01:20:03;12.90;84.20
22956;DHT22;40888;48.148;11.526;2024-03-23T01:22:29;12.90;84.40
22956;DHT22;40888;48.148;11.526;2024-03-23T01:24:55;12.90;84.80
22956;DHT22;40888;48.148;11.526;2024-03-23T01:27:21;13.00;84.80
22956;DHT22;40888;48.148;11.526;2024-03-23T01:29:46;12.90;85.00
22956;DHT22;40888;48.148;11.526;2024-03-23T01:32:12;12.80;85.60
22956;DHT22;40888;48.148;11.526;2024-03-23T01:34:38;12.90;85.80
22956;DHT22;40888;48.148;11.526;2024-03-23T01:37:04;12.80;86.70
22956;DHT22;40888;48.148;11.526;2024-03-23T01:39:30;12.70;87.40
22956;DHT22;40888;48.148;11.526;2024-03-23T01:41:56;12.60;87.90
22956;DHT22;40888;48.148;11.526;2024-03-23T01:44:21;12.60;88.70
22956;DHT22;40888;48.148;11.526;2024-03-23T01:46:47;12.60;89.20
22956;DHT22;40888;48.148;11.526;2024-03-23T01:49:13;12.50;89.60
22956;DHT22;40888;48.148;11.526;2024-03-23T01:51:39;12.50;90.10
22956;DHT22;40888;48.148;11.526;2024-03-23T01:54:06;12.50;90.70
22956;DHT22;40888;48.148;11.526;2024-03-23T01:56:33;12.40;90.70
22956;DHT22;40888;48.148;11.526;2024-03-23T01:59:08;12.40;91.20
22956;DHT22;40888;48.148;11.526;2024-03-23T02:01:36;12.40;91.50
22956;DHT22;40888;48.148;11.526;2024-03-23T02:04:02;12.30;92.00
22956;DHT22;40888;48.148;11.526;2024-03-23T02:06:28;12.30;92.50
22956;DHT22;40888;48.148;11.526;2024-03-23T02:08:58;12.20;93.20
22956;DHT22;40888;48.148;11.526;2024-03-23T02:11:23;12.20;93.40
22956;DHT22;40888;48.148;11.526;2024-03-23T02:13:49;12.20;93.90
22956;DHT22;40888;48.148;11.526;2024-03-23T02:16:15;12.20;93.90
22956;DHT22;40888;48.148;11.526;2024-03-23T02:18:41;12.20;93.90
22956;DHT22;40888;48.148;11.526;2024-03-23T02:21:06;12.10;94.30
22956;DHT22;40888;48.148;11.526;2024-03-23T02:23:32;12.00;95.10
22956;DHT22;40888;48.148;11.526;2024-03-23T02:25:58;12.00;95.60
22956;DHT22;40888;48.148;11.526;2024-03-23T02:28:24;12.00;96.00
22956;DHT22;40888;48.148;11.526;2024-03-23T02:30:50;12.00;96.80
22956;DHT22;40888;48.148;11.526;2024-03-23T02:33:16;12.00;96.80
22956;DHT22;40888;48.148;11.526;2024-03-23T02:35:43;11.90;97.40
22956;DHT22;40888;48.148;11.526;2024-03-23T02:38:09;12.00;97.60
22956;DHT22;40888;48.148;11.526;2024-03-23T02:40:34;11.90;98.10
22956;DHT22;40888;48.148;11.526;2024-03-23T02:43:00;11.80;99.10
22956;DHT22;40888;48.148;11.526;2024-03-23T02:45:26;11.80;99.90
22956;DHT22;40888;48.148;11.526;2024-03-23T02:47:51;11.70;99.90
22956;DHT22;40888;48.148;11.526;2024-03-23T02:50:20;11.70;99.90
22956;DHT22;40888;48.148;11.526;2024-03-23T02:52:47;11.70;99.90
22956;DHT22;40888;48.148;11.526;2024-03-23T02:55:13;11.80;99.90
22956;DHT22;40888;48.148;11.526;2024-03-23T02:57:39;11.80;99.90
22956;DHT22;40888;48.148;11.526;2024-03-23T03:00:05;11.60;99.90
22956;DHT22;40888;48.148;11.526;2024-03-23T03:02:32;11.60;99.90
22956;DHT22;40888;48.148;11.526;2024-03-23T03:04:58;11.60;99.90
22956;DHT22;40888;48.148;11.526;2024-03-23T03:07:24;11.60;99.90
22956;DHT22;40888;48.148;11.526;2024-03-23T03:09:50;11.50;99.90
22956;DHT22;40888;48.148;11.526;2024-03-23T03:12:15;11.50;99.90
22956;DHT22;40888;48.148;11.526;2024-03-23T03:14:41;11.50;99.90
22956;DHT22;40888;48.148;11.526;2024-03-23T03:17:07;11.50;99.90
22956;DHT22;40888;48.148;11.526;2024-03-23T03:19:34;11.50;99.90
22956;DHT22;40888;48.148;11.526;2024-03-23T03:21:59;11.50;99.90
22956;DHT22;40888;48.148;11.526;2024-03-23T03:24:25;11.40;99.90
22956;DHT22;40888;48.148;11.526;2024-03-23T03:26:51;11.40;99.90
22956;DHT22;40888;48.148;11.526;2024-03-23T03:29:17;11.30;99.90
22956;DHT22;40888;48.148;11.526;2024-03-23T03:31:43;11.30;99.90
22956;DHT22;40888;48.148;11.526;2024-03-23T03:34:09;11.30;99.90
22956;DHT22;40888;48.148;11.526;2024-03-23T03:36:35;11.30;99.90
22956;DHT22;40888;48.148;11.526;2024-03-23T03:39:00;11.20;99.90
22956;DHT22;40888;48.148;11.526;2024-03-23T03:41:28;11.00;99.90
22956;DHT22;40888;48.148;11.526;2024-03-23T03:43:54;11.00;99.90
22956;DHT22;40888;48.148;11.526;2024-03-23T03:46:21;10.90;99.90
22956;DHT22;40888;48.148;11.526;2024-03-23T03:48:46;10.90;99.90
22956;DHT22;40888;48.148;11.526;2024-03-23T03:51:14;10.90;99.90
22956;DHT22;40888;48.148;11.526;2024-03-23T03:53:39;10.90;99.90
22956;DHT22;40888;48.148;11.526;2024-03-23T03:56:05;10.90;99.90
22956;DHT22;40888;48.148;11.526;2024-03-23T03:58:32;10.70;99.90
22956;DHT22;40888;48.148;11.526;2024-03-23T04:00:57;10.70;99.90
22956;DHT22;40888;48.148;11.526;2024-03-23T04:03:23;10.60;99.90
22956;DHT22;40888;48.148;11.526;2024-03-23T04:05:53;10.60;99.90
22956;DHT22;40888;48.148;11.526;2024-03-23T04:08:20;10.60;99.90
22956;DHT22;40888;48.148;11.526;2024-03-23T04:10:46;10.60;99.90
22956;DHT22;40888;48.148;11.526;2024-03-23T04:13:13;10.50;99.90
22956;DHT22;40888;48.148;11.526;2024-03-23T04:15:39;10.60;99.90
22956;DHT22;40888;48.148;11.526;2024-03-23T04:18:05;10.60;99.90
22956;DHT22;40888;48.148;11.526;2024-03-23T04:20:31;10.60;99.90
22956;DHT22;40888;48.148;11.526;2024-03-23T04:23:00;10.60;99.90
22956;DHT22;40888;48.148;11.526;2024-03-23T04:25:26;10.60;99.90
22956;DHT22;40888;48.148;11.526;2024-03-23T04:27:52;10.60;99.90
22956;DHT22;40888;48.148;11.526;2024-03-23T04:30:18;10.70;99.90
22956;DHT22;40888;48.148;11.526;2024-03-23T04:32:44;10.60;99.90
22956;DHT22;40888;48.148;11.526;2024-03-23T04:35:10;10.70;99.90
22956;DHT22;40888;48.148;11.526;2024-03-23T04:37:37;10.70;99.90
22956;DHT22;40888;48.148;11.526;2024-03-23T04:40:03;10.80;99.90
22956;DHT22;40888;48.148;11.526;2024-03-23T04:42:29;10.80;99.90
22956;DHT22;40888;48.148;11.526;2024-03-23T04:44:55;10.70;99.90
22956;DHT22;40888;48.148;11.526;2024-03-23T04:47:21;10.70;99.90
22956;DHT22;40888;48.148;11.526;2024-03-23T04:49:47;10.70;99.90
22956;DHT22;40888;48.148;11.526;2024-03-23T04:52:12;10.70;99.90
22956;DHT22;40888;48.148;11.526;2024-03-23T04:54:38;10.80;99.90
22956;DHT22;40888;48.148;11.526;2024-03-23T04:57:06;10.80;99.90
22956;DHT22;40888;48.148;11.526;2024-03-23T04:59:32;10.80;99.90
22956;DHT22;40888;48.148;11.526;2024-03-23T05:01:58;10.70;99.90
22956;DHT22;40888;48.148;11.526;2024-03-23T05:04:25;10.80;99.90
22956;DHT22;40888;48.148;11.526;2024-03-23T05:06:51;10.80;99.90
22956;DHT22;40888;48.148;11.526;2024-03-23T05:09:16;10.90;99.90
22956;DHT22;40888;48.148;11.526;2024-03-23T05:11:42;10.90;99.90
22956;DHT22;40888;48.148;11.526;2024-03-23T05:14:08;10.90;99.90
22956;DHT22;40888;48.148;11.526;2024-03-23T05:16:34;10.90;99.90
22956;DHT22;40888;48.148;11.526;2024-03-23T05:19:00;11.00;99.90
22956;DHT22;40888;48.148;11.526;2024-03-23T05:21:26;11.00;99.90
22956;DHT22;40888;48.148;11.526;2024-03-23T05:23:54;11.10;99.90
22956;DHT22;40888;48.148;11.526;2024-03-23T05:26:21;11.10;99.90
22956;DHT22;40888;48.148;11.526;2024-03-23T05:28:47;11.00;99.90
22956;DHT22;40888;48.148;11.526;2024-03-23T05:31:22;11.20;99.90
22956;DHT22;40888;48.148;11.526;2024-03-23T05:33:47;11.10;99.90
22956;DHT22;40888;48.148;11.526;2024-03-23T05:36:13;11.20;99.90
22956;DHT22;40888;48.148;11.526;2024-03-23T05:38:39;11.20;99.90
22956;DHT22;40888;48.148;11.526;2024-03-23T05:41:05;11.20;99.90
22956;DHT22;40888;48.148;11.526;2024-03-23T05:43:30;11.30;99.90
22956;DHT22;40888;48.148;11.526;2024-03-23T05:46:00;11.30;99.90
22956;DHT22;40888;48.148;11.526;2024-03-23T05:48:27;11.40;99.90
22956;DHT22;40888;48.148;11.526;2024-03-23T05:50:53;11.50;99.90
22956;DHT22;40888;48.148;11.526;2024-03-23T05:53:20;11.70;99.20
22956;DHT22;40888;48.148;11.526;2024-03-23T05:55:49;11.80;98.00
22956;DHT22;40888;48.148;11.526;2024-03-23T05:58:16;11.90;97.00
22956;DHT22;40888;48.148;11.526;2024-03-23T06:00:43;11.80;96.70
22956;DHT22;40888;48.148;11.526;2024-03-23T06:03:09;12.00;96.30
22956;DHT22;40888;48.148;11.526;2024-03-23T06:05:38;12.10;95.50
22956;DHT22;40888;48.148;11.526;2024-03-23T06:08:04;12.10;95.40
22956;DHT22;40888;48.148;11.526;2024-03-23T06:10:30;12.20;94.90
22956;DHT22;40888;48.148;11.526;2024-03-23T06:12:57;12.30;94.90
22956;DHT22;40888;48.148;11.526;2024-03-23T06:15:24;12.40;94.10
22956;DHT22;40888;48.148;11.526;2024-03-23T06:17:50;12.40;94.30
22956;DHT22;40888;48.148;11.526;2024-03-23T06:20:16;12.50;93.40
22956;DHT22;40888;48.148;11.526;2024-03-23T06:22:42;12.60;92.70
22956;DHT22;40888;48.148;11.526;2024-03-23T06:25:08;12.70;92.10
22956;DHT22;40888;48.148;11.526;2024-03-23T06:27:33;12.80;91.60
22956;DHT22;40888;48.148;11.526;2024-03-23T06:29:59;12.80;91.30
22956;DHT22;40888;48.148;11.526;2024-03-23T06:32:25;12.90;90.70
22956;DHT22;40888;48.148;11.526;2024-03-23T06:34:51;13.00;89.90
22956;DHT22;40888;48.148;11.526;2024-03-23T06:37:17;13.00;90.10
22956;DHT22;40888;48.148;11.526;2024-03-23T06:39:42;13.00;89.00
22956;DHT22;40888;48.148;11.526;2024-03-23T06:42:08;13.10;87.70
22956;DHT22;40888;48.148;11.526;2024-03-23T06:44:34;13.20;87.50
22956;DHT22;40888;48.148;11.526;2024-03-23T06:47:00;13.30;86.30
22956;DHT22;40888;48.148;11.526;2024-03-23T06:49:25;13.30;86.50
22956;DHT22;40888;48.148;11.526;2024-03-23T06:51:51;13.40;86.20
22956;DHT22;40888;48.148;11.526;2024-03-23T06:54:19;13.50;85.30
22956;DHT22;40888;48.148;11.526;2024-03-23T06:56:44;13.50;84.50
22956;DHT22;40888;48.148;11.526;2024-03-23T06:59:10;13.70;84.30
22956;DHT22;40888;48.148;11.526;2024-03-23T07:01:36;13.80;84.30
22956;DHT22;40888;48.148;11.526;2024-03-23T07:04:02;14.00;84.30
22956;DHT22;40888;48.148;11.526;2024-03-23T07:06:30;14.10;84.80
22956;DHT22;40888;48.148;11.526;2024-03-23T07:08:56;14.10;84.60
22956;DHT22;40888;48.148;11.526;2024-03-23T07:11:22;14.20;84.90
22956;DHT22;40888;48.148;11.526;2024-03-23T07:13:52;14.30;84.80
22956;DHT22;40888;48.148;11.526;2024-03-23T07:16:20;14.20;84.10
22956;DHT22;40888;48.148;11.526;2024-03-23T07:18:46;14.20;84.30
22956;DHT22;40888;48.148;11.526;2024-03-23T07:21:11;14.20;84.30
22956;DHT22;40888;48.148;11.526;2024-03-23T07:23:37;14.20;84.50
22956;DHT22;40888;48.148;11.526;2024-03-23T07:26:04;14.10;85.40
22956;DHT22;40888;48.148;11.526;2024-03-23T07:28:34;14.10;85.20
22956;DHT22;40888;48.148;11.526;2024-03-23T07:31:02;14.10;86.30
22956;DHT22;40888;48.148;11.526;2024-03-23T07:33:28;14.00;86.30
22956;DHT22;40888;48.148;11.526;2024-03-23T07:35:54;14.10;85.80
22956;DHT22;40888;48.148;11.526;2024-03-23T07:38:20;14.10;85.80
22956;DHT22;40888;48.148;11.526;2024-03-23T07:40:45;14.00;88.50
22956;DHT22;40888;48.148;11.526;2024-03-23T07:43:11;13.90;99.90
22956;DHT22;40888;48.148;11.526;2024-03-23T07:45:37;13.60;99.90
22956;DHT22;40888;48.148;11.526;2024-03-23T07:48:04;13.20;99.90
22956;DHT22;40888;48.148;11.526;2024-03-23T07:50:30;12.90;99.90
22956;DHT22;40888;48.148;11.526;2024-03-23T07:52:55;12.70;99.90
22956;DHT22;40888;48.148;11.526;2024-03-23T07:55:21;12.40;99.90
22956;DHT22;40888;48.148;11.526;2024-03-23T07:57:47;12.10;99.90
22956;DHT22;40888;48.148;11.526;2024-03-23T08:00:13;11.90;99.90
22956;DHT22;40888;48.148;11.526;2024-03-23T08:02:39;11.70;99.90
22956;DHT22;40888;48.148;11.526;2024-03-23T08:05:05;11.50;99.90
22956;DHT22;40888;48.148;11.526;2024-03-23T08:07:31;11.40;99.90
22956;DHT22;40888;48.148;11.526;2024-03-23T08:09:57;11.20;99.90
22956;DHT22;40888;48.148;11.526;2024-03-23T08:12:24;11.00;99.90
22956;DHT22;40888;48.148;11.526;2024-03-23T08:14:50;10.90;99.90
22956;DHT22;40888;48.148;11.526;2024-03-23T08:17:16;10.70;99.90
22956;DHT22;40888;48.148;11.526;2024-03-23T08:19:42;10.60;99.90
22956;DHT22;40888;48.148;11.526;2024-03-23T08:22:07;10.50;99.90
22956;DHT22;40888;48.148;11.526;2024-03-23T08:24:34;10.40;99.90
22956;DHT22;40888;48.148;11.526;2024-03-23T08:27:00;10.30;99.90
22956;DHT22;40888;48.148;11.526;2024-03-23T08:29:26;10.30;99.90
22956;DHT22;40888;48.148;11.526;2024-03-23T08:31:51;10.20;99.90
22956;DHT22;40888;48.148;11.526;2024-03-23T08:34:17;10.00;99.90
22956;DHT22;40888;48.148;11.526;2024-03-23T08:36:43;9.80;99.90
22956;DHT22;40888;48.148;11.526;2024-03-23T08:39:09;9.60;99.90
22956;DHT22;40888;48.148;11.526;2024-03-23T08:41:35;9.40;99.90
22956;DHT22;40888;48.148;11.526;2024-03-23T08:44:00;9.20;99.90
22956;DHT22;40888;48.148;11.526;2024-03-23T08:46:26;9.20;99.90
22956;DHT22;40888;48.148;11.526;2024-03-23T08:48:53;9.10;99.90
22956;DHT22;40888;48.148;11.526;2024-03-23T08:51:18;9.10;99.90
22956;DHT22;40888;48.148;11.526;2024-03-23T08:53:46;9.00;99.90
22956;DHT22;40888;48.148;11.526;2024-03-23T08:56:12;9.00;99.90
22956;DHT22;40888;48.148;11.526;2024-03-23T08:58:38;8.90;99.90
22956;DHT22;40888;48.148;11.526;2024-03-23T09:03:30;8.90;99.90
22956;DHT22;40888;48.148;11.526;2024-03-23T09:05:56;8.80;99.90
22956;DHT22;40888;48.148;11.526;2024-03-23T09:08:23;8.80;99.90
22956;DHT22;40888;48.148;11.526;2024-03-23T09:10:49;8.80;99.90
22956;DHT22;40888;48.148;11.526;2024-03-23T09:13:15;8.80;99.90
22956;DHT22;40888;48.148;11.526;2024-03-23T09:15:51;8.70;99.90
22956;DHT22;40888;48.148;11.526;2024-03-23T09:18:22;8.70;99.90
22956;DHT22;40888;48.148;11.526;2024-03-23T09:20:47;8.80;99.90
22956;DHT22;40888;48.148;11.526;2024-03-23T09:23:13;8.80;99.90
22956;DHT22;40888;48.148;11.526;2024-03-23T09:25:40;8.80;99.90
22956;DHT22;40888;48.148;11.526;2024-03-23T09:28:08;8.80;99.90
22956;DHT22;40888;48.148;11.526;2024-03-23T09:30:35;8.80;99.90
22956;DHT22;40888;48.148;11.526;2024-03-23T09:33:02;8.70;99.90
22956;DHT22;40888;48.148;11.526;2024-03-23T09:35:28;8.80;99.90
22956;DHT22;40888;48.148;11.526;2024-03-23T09:37:54;8.80;99.90
22956;DHT22;40888;48.148;11.526;2024-03-23T09:40:20;8.80;99.90
22956;DHT22;40888;48.148;11.526;2024-03-23T09:42:50;8.70;99.90
22956;DHT22;40888;48.148;11.526;2024-03-23T09:45:27;8.60;99.90
22956;DHT22;40888;48.148;11.526;2024-03-23T09:47:52;8.50;99.90
22956;DHT22;40888;48.148;11.526;2024-03-23T09:50:18;8.50;99.90
22956;DHT22;40888;48.148;11.526;2024-03-23T09:52:47;8.40;99.90
22956;DHT22;40888;48.148;11.526;2024-03-23T09:55:13;8.40;99.90
22956;DHT22;40888;48.148;11.526;2024-03-23T09:57:40;8.40;99.90
22956;DHT22;40888;48.148;11.526;2024-03-23T10:00:06;8.40;99.90
22956;DHT22;40888;48.148;11.526;2024-03-23T10:02:34;8.30;99.90
22956;DHT22;40888;48.148;11.526;2024-03-23T10:05:00;8.30;99.90
22956;DHT22;40888;48.148;11.526;2024-03-23T10:07:25;8.10;99.90
22956;DHT22;40888;48.148;11.526;2024-03-23T10:09:53;8.00;99.90
22956;DHT22;40888;48.148;11.526;2024-03-23T10:12:20;8.00;99.90
22956;DHT22;40888;48.148;11.526;2024-03-23T10:14:46;8.00;99.90
22956;DHT22;40888;48.148;11.526;2024-03-23T10:19:46;7.90;99.90
22956;DHT22;40888;48.148;11.526;2024-03-23T10:22:21;8.00;99.90
22956;DHT22;40888;48.148;11.526;2024-03-23T10:24:48;8.00;99.90
22956;DHT22;40888;48.148;11.526;2024-03-23T10:27:18;8.00;99.90
22956;DHT22;40888;48.148;11.526;2024-03-23T10:29:50;8.10;99.90
22956;DHT22;40888;48.148;11.526;2024-03-23T10:32:17;8.00;99.90
22956;DHT22;40888;48.148;11.526;2024-03-23T10:34:43;8.10;99.90
22956;DHT22;40888;48.148;11.526;2024-03-23T10:37:10;8.00;99.90
22956;DHT22;40888;48.148;11.526;2024-03-23T10:39:40;8.10;99.90
22956;DHT22;40888;48.148;11.526;2024-03-23T10:42:08;8.10;99.90
22956;DHT22;40888;48.148;11.526;2024-03-23T10:44:34;8.10;99.90
22956;DHT22;40888;48.148;11.526;2024-03-23T10:47:04;8.00;99.90
22956;DHT22;40888;48.148;11.526;2024-03-23T10:49:35;7.90;99.90
22956;DHT22;40888;48.148;11.526;2024-03-23T10:52:04;7.70;99.90
22956;DHT22;40888;48.148;11.526;2024-03-23T10:54:31;7.60;99.90
22956;DHT22;40888;48.148;11.526;2024-03-23T10:57:13;7.60;99.90
22956;DHT22;40888;48.148;11.526;2024-03-23T10:59:40;7.60;99.90
22956;DHT22;40888;48.148;11.526;2024-03-23T11:02:06;7.60;99.90
22956;DHT22;40888;48.148;11.526;2024-03-23T11:04:37;7.70;99.90
22956;DHT22;40888;48.148;11.526;2024-03-23T11:09:53;7.70;99.90
22956;DHT22;40888;48.148;11.526;2024-03-23T11:15:04;7.80;99.90
22956;DHT22;40888;48.148;11.526;2024-03-23T11:17:30;7.80;99.90
22956;DHT22;40888;48.148;11.526;2024-03-23T11:20:06;7.90;99.90
22956;DHT22;40888;48.148;11.526;2024-03-23T11:25:22;7.90;99.90
22956;DHT22;40888;48.148;11.526;2024-03-23T11:30:26;8.00;99.90
22956;DHT22;40888;48.148;11.526;2024-03-23T11:32:54;8.00;99.90
22956;DHT22;40888;48.148;11.526;2024-03-23T11:35:33;8.10;99.90
22956;DHT22;40888;48.148;11.526;2024-03-23T11:38:09;8.20;99.90
22956;DHT22;40888;48.148;11.526;2024-03-23T11:40:48;8.10;99.90
22956;DHT22;40888;48.148;11.526;2024-03-23T11:43:18;8.20;99.90
22956;DHT22;40888;48.148;11.526;2024-03-23T11:45:52;8.10;99.90
22956;DHT22;40888;48.148;11.526;2024-03-23T11:48:20;8.20;99.90
22956;DHT22;40888;48.148;11.526;2024-03-23T11:50:57;8.30;99.90
22956;DHT22;40888;48.148;11.526;2024-03-23T11:53:24;8.20;99.90
22956;DHT22;40888;48.148;11.526;2024-03-23T11:55:57;8.30;99.90
22956;DHT22;40888;48.148;11.526;2024-03-23T11:58:24;8.30;99.90
22956;DHT22;40888;48.148;11.526;2024-03-23T12:03:17;8.40;99.90
22956;DHT22;40888;48.148;11.526;2024-03-23T12:05:51;8.40;99.90
22956;DHT22;40888;48.148;11.526;2024-03-23T12:08:32;8.40;99.90
22956;DHT22;40888;48.148;11.526;2024-03-23T12:11:14;8.40;99.90
22956;DHT22;40888;48.148;11.526;2024-03-23T12:13:42;8.20;99.90
22956;DHT22;40888;48.148;11.526;2024-03-23T12:16:19;8.20;99.90
22956;DHT22;40888;48.148;11.526;2024-03-23T12:18:49;8.20;99.90
22956;DHT22;40888;48.148;11.526;2024-03-23T12:21:17;8.20;99.90
22956;DHT22;40888;48.148;11.526;2024-03-23T12:23:43;8.20;99.90
22956;DHT22;40888;48.148;11.526;2024-03-23T12:26:14;8.20;99.90
22956;DHT22;40888;48.148;11.526;2024-03-23T12:28:40;8.20;99.90
22956;DHT22;40888;48.148;11.526;2024-03-23T12:31:05;8.20;99.90
22956;DHT22;40888;48.148;11.526;2024-03-23T12:33:31;8.30;99.90
22956;DHT22;40888;48.148;11.526;2024-03-23T12:35:57;8.30;99.90
22956;DHT22;40888;48.148;11.526;2024-03-23T12:38:23;8.40;99.90
22956;DHT22;40888;48.148;11.526;2024-03-23T12:40:51;8.40;99.90
22956;DHT22;40888;48.148;11.526;2024-03-23T12:43:18;8.50;99.90
22956;DHT22;40888;48.148;11.526;2024-03-23T12:45:47;8.60;99.90
22956;DHT22;40888;48.148;11.526;2024-03-23T12:48:13;8.60;99.90
22956;DHT22;40888;48.148;11.526;2024-03-23T12:50:39;8.50;99.90
22956;DHT22;40888;48.148;11.526;2024-03-23T12:53:05;8.50;99.90
22956;DHT22;40888;48.148;11.526;2024-03-23T12:55:30;8.40;99.90
22956;DHT22;40888;48.148;11.526;2024-03-23T12:57:56;8.40;99.90
22956;DHT22;40888;48.148;11.526;2024-03-23T13:00:22;8.40;99.90
22956;DHT22;40888;48.148;11.526;2024-03-23T13:02:48;8.50;99.90
22956;DHT22;40888;48.148;11.526;2024-03-23T13:05:13;8.60;99.90
22956;DHT22;40888;48.148;11.526;2024-03-23T13:07:39;8.70;99.90
22956;DHT22;40888;48.148;11.526;2024-03-23T13:10:05;8.60;99.90
22956;DHT22;40888;48.148;11.526;2024-03-23T13:12:32;8.60;99.90
22956;DHT22;40888;48.148;11.526;2024-03-23T13:15:00;8.70;99.90
22956;DHT22;40888;48.148;11.526;2024-03-23T13:17:27;8.70;99.90
22956;DHT22;40888;48.148;11.526;2024-03-23T13:19:56;8.70;99.90
22956;DHT22;40888;48.148;11.526;2024-03-23T13:22:22;8.90;99.90
22956;DHT22;40888;48.148;11.526;2024-03-23T13:24:48;8.80;99.90
22956;DHT22;40888;48.148;11.526;2024-03-23T13:27:13;8.80;99.90
22956;DHT22;40888;48.148;11.526;2024-03-23T13:29:39;8.70;99.90
22956;DHT22;40888;48.148;11.526;2024-03-23T13:32:05;8.80;99.90
22956;DHT22;40888;48.148;11.526;2024-03-23T13:34:31;8.80;99.90
22956;DHT22;40888;48.148;11.526;2024-03-23T13:36:59;8.90;99.90
22956;DHT22;40888;48.148;11.526;2024-03-23T13:39:25;8.90;99.90
22956;DHT22;40888;48.148;11.526;2024-03-23T13:41:52;8.80;99.90
22956;DHT22;40888;48.148;11.526;2024-03-23T13:44:18;8.70;99.90
22956;DHT22;40888;48.148;11.526;2024-03-23T13:46:44;8.70;99.90
22956;DHT22;40888;48.148;11.526;2024-03-23T13:49:30;8.70;99.90
22956;DHT22;40888;48.148;11.526;2024-03-23T13:52:02;8.70;99.90
22956;DHT22;40888;48.148;11.526;2024-03-23T13:54:28;8.20;99.90
22956;DHT22;40888;48.148;11.526;2024-03-23T13:56:57;8.00;99.90
22956;DHT22;40888;48.148;11.526;2024-03-23T13:59:23;7.70;99.90
22956;DHT22;40888;48.148;11.526;2024-03-23T14:01:50;7.40;99.90
22956;DHT22;40888;48.148;11.526;2024-03-23T14:04:17;7.10;99.90
22956;DHT22;40888;48.148;11.526;2024-03-23T14:06:46;6.80;99.90
22956;DHT22;40888;48.148;11.526;2024-03-23T14:09:12;6.70;99.90
22956;DHT22;40888;48.148;11.526;2024-03-23T14:11:38;6.50;99.90
22956;DHT22;40888;48.148;11.526;2024-03-23T14:14:05;6.60;99.90
22956;DHT22;40888;48.148;11.526;2024-03-23T14:16:31;6.60;99.90
22956;DHT22;40888;48.148;11.526;2024-03-23T14:18:57;6.60;99.90
22956;DHT22;40888;48.148;11.526;2024-03-23T14:21:23;6.60;99.90
22956;DHT22;40888;48.148;11.526;2024-03-23T14:23:49;6.60;99.90
22956;DHT22;40888;48.148;11.526;2024-03-23T14:26:15;6.60;99.90
22956;DHT22;40888;48.148;11.526;2024-03-23T14:28:41;6.80;99.90
22956;DHT22;40888;48.148;11.526;2024-03-23T14:31:06;6.80;99.90
22956;DHT22;40888;48.148;11.526;2024-03-23T14:33:37;6.80;99.90
22956;DHT22;40888;48.148;11.526;2024-03-23T14:36:03;6.90;99.90
22956;DHT22;40888;48.148;11.526;2024-03-23T14:38:29;6.90;99.90
22956;DHT22;40888;48.148;11.526;2024-03-23T14:40:58;7.00;99.90
22956;DHT22;40888;48.148;11.526;2024-03-23T14:43:24;7.00;99.90
22956;DHT22;40888;48.148;11.526;2024-03-23T14:46:09;7.10;99.90
22956;DHT22;40888;48.148;11.526;2024-03-23T14:48:35;7.00;99.90
22956;DHT22;40888;48.148;11.526;2024-03-23T14:51:02;7.00;99.90
22956;DHT22;40888;48.148;11.526;2024-03-23T14:53:44;6.90;99.90
22956;DHT22;40888;48.148;11.526;2024-03-23T14:56:10;6.90;99.90
22956;DHT22;40888;48.148;11.526;2024-03-23T14:58:38;6.90;99.90
22956;DHT22;40888;48.148;11.526;2024-03-23T15:01:08;7.00;99.90
22956;DHT22;40888;48.148;11.526;2024-03-23T15:03:37;7.00;99.90
22956;DHT22;40888;48.148;11.526;2024-03-23T15:06:06;7.00;99.90
22956;DHT22;40888;48.148;11.526;2024-03-23T15:08:34;6.80;99.90
22956;DHT22;40888;48.148;11.526;2024-03-23T15:11:00;6.70;99.90
22956;DHT22;40888;48.148;11.526;2024-03-23T15:13:34;6.60;99.90
22956;DHT22;40888;48.148;11.526;2024-03-23T15:16:00;6.30;99.90
22956;DHT22;40888;48.148;11.526;2024-03-23T15:18:25;6.20;99.90
22956;DHT22;40888;48.148;11.526;2024-03-23T15:20:56;6.10;99.90
22956;DHT22;40888;48.148;11.526;2024-03-23T15:23:22;6.00;99.90
22956;DHT22;40888;48.148;11.526;2024-03-23T15:26:01;5.90;99.90
22956;DHT22;40888;48.148;11.526;2024-03-23T15:28:28;5.90;99.90
22956;DHT22;40888;48.148;11.526;2024-03-23T15:31:07;5.90;99.90
22956;DHT22;40888;48.148;11.526;2024-03-23T15:33:34;6.00;99.90
22956;DHT22;40888;48.148;11.526;2024-03-23T15:36:01;6.00;99.90
22956;DHT22;40888;48.148;11.526;2024-03-23T15:38:27;6.00;99.90
22956;DHT22;40888;48.148;11.526;2024-03-23T15:40:54;6.00;99.90
22956;DHT22;40888;48.148;11.526;2024-03-23T15:43:20;6.10;99.90
22956;DHT22;40888;48.148;11.526;2024-03-23T15:46:02;6.10;99.90
22956;DHT22;40888;48.148;11.526;2024-03-23T15:48:32;6.00;99.90
22956;DHT22;40888;48.148;11.526;2024-03-23T15:51:04;6.00;99.90
22956;DHT22;40888;48.148;11.526;2024-03-23T15:53:30;5.90;99.90
22956;DHT22;40888;48.148;11.526;2024-03-23T15:56:05;6.20;99.90
22956;DHT22;40888;48.148;11.526;2024-03-23T15:58:32;6.50;99.90
22956;DHT22;40888;48.148;11.526;2024-03-23T16:03:26;6.50;99.90
22956;DHT22;40888;48.148;11.526;2024-03-23T16:05:57;6.60;99.90
22956;DHT22;40888;48.148;11.526;2024-03-23T16:08:23;6.70;99.90
22956;DHT22;40888;48.148;11.526;2024-03-23T16:10:49;6.70;99.90
22956;DHT22;40888;48.148;11.526;2024-03-23T16:13:16;6.60;99.90
22956;DHT22;40888;48.148;11.526;2024-03-23T16:15:42;6.60;99.90
22956;DHT22;40888;48.148;11.526;2024-03-23T16:18:08;6.50;99.90
22956;DHT22;40888;48.148;11.526;2024-03-23T16:20:33;6.40;99.90
22956;DHT22;40888;48.148;11.526;2024-03-23T16:23:00;6.40;99.90
22956;DHT22;40888;48.148;11.526;2024-03-23T16:25:26;6.30;99.90
22956;DHT22;40888;48.148;11.526;2024-03-23T16:27:53;6.40;99.90
22956;DHT22;40888;48.148;11.526;2024-03-23T16:30:19;6.40;99.90
22956;DHT22;40888;48.148;11.526;2024-03-23T16:32:46;6.40;99.90
22956;DHT22;40888;48.148;11.526;2024-03-23T16:35:15;6.40;99.90